createdAt,value
2019-05-11T00:03:10.223Z,1007
2019-05-11T00:08:15.347Z,1007
2019-05-11T00:13:20.248Z,1007
2019-05-11T00:18:25.177Z,1007
2019-05-11T00:23:30.257Z,1007
2019-05-11T00:28:40.302Z,1007
2019-05-11T00:33:50.217Z,1007
2019-05-11T00:38:55.219Z,1007
2019-05-11T00:44:00.225Z,1007
2019-05-11T00:49:05.189Z,1007
2019-05-11T00:54:10.195Z,1007
2019-05-11T00:59:22.452Z,1007
2019-05-11T01:04:20.291Z,1007
2019-05-11T01:09:25.323Z,1007
2019-05-11T01:19:25.463Z,1006
2019-05-11T01:24:30.504Z,1006
2019-05-11T01:29:35.480Z,1007
2019-05-11T01:34:45.466Z,1006
2019-05-11T01:39:55.405Z,1007
2019-05-11T01:45:00.760Z,1007
2019-05-11T01:50:05.407Z,1007
2019-05-11T02:00:05.644Z,1006
2019-05-11T02:05:10.629Z,1006
2019-05-11T02:10:15.672Z,1006
2019-05-11T02:15:25.686Z,1006
2019-05-11T02:25:30.791Z,1006
2019-05-11T02:30:35.783Z,1006
2019-05-11T02:35:40.833Z,1006
2019-05-11T02:40:50.774Z,1006
2019-05-11T02:46:00.817Z,1006
2019-05-11T02:51:05.878Z,1006
2019-05-11T02:56:10.863Z,1006
2019-05-11T03:01:15.802Z,1006
2019-05-11T03:06:20.842Z,1007
2019-05-11T03:11:30.888Z,1006
2019-05-11T03:16:40.772Z,1006
2019-05-11T03:21:45.847Z,1007
2019-05-11T03:26:50.814Z,1006
2019-05-11T03:31:55.879Z,1007
2019-05-11T03:37:00.789Z,1007
2019-05-11T03:43:18.188Z,1007
2019-05-11T03:47:10.840Z,1006
2019-05-11T03:52:15.793Z,1007
2019-05-11T03:57:20.991Z,1006
2019-05-11T04:02:25.790Z,1007
2019-05-11T04:07:30.825Z,1007
2019-05-11T04:17:30.946Z,1007
2019-05-11T04:22:36.057Z,1007
2019-05-11T04:27:41.061Z,1007
2019-05-11T04:32:50.955Z,1007
2019-05-11T04:38:00.926Z,1007
2019-05-11T04:43:06.034Z,1007
2019-05-11T04:48:10.953Z,1007
2019-05-11T04:53:15.973Z,1007
2019-05-11T04:58:21.003Z,1007
2019-05-11T05:04:47.301Z,1007
2019-05-11T05:08:40.982Z,1007
2019-05-11T05:13:45.959Z,1007
2019-05-11T05:18:51.001Z,1007
2019-05-11T05:23:55.964Z,1007
2019-05-11T05:29:01.011Z,1007
2019-05-11T05:34:11.027Z,1007
2019-05-11T05:39:20.930Z,1007
2019-05-11T05:44:28.452Z,1007
2019-05-11T05:49:31.137Z,1006
2019-05-11T05:54:36.032Z,1007
2019-05-11T05:59:40.987Z,1007
2019-05-11T06:04:45.912Z,1007
2019-05-11T06:09:56.078Z,1007
2019-05-11T06:15:05.984Z,1007
2019-05-11T06:20:11.398Z,1007
2019-05-11T06:25:15.979Z,1007
2019-05-11T06:30:20.925Z,1007
2019-05-11T06:35:25.905Z,1007
2019-05-11T06:40:35.969Z,1007
2019-05-11T06:45:45.952Z,1007
2019-05-11T06:50:50.977Z,1007
2019-05-11T06:55:55.893Z,1007
2019-05-11T07:01:01.060Z,1007
2019-05-11T07:06:05.873Z,1007
2019-05-11T07:11:15.935Z,1006
2019-05-11T07:16:26.002Z,1006
2019-05-11T07:21:31.946Z,1006
2019-05-11T07:26:35.955Z,1006
2019-05-11T07:31:40.901Z,1006
2019-05-11T07:36:48.079Z,1006
2019-05-11T07:46:48.667Z,1006
2019-05-11T07:51:51.221Z,1006
2019-05-11T07:56:58.798Z,1006
2019-05-11T08:06:58.821Z,1006
2019-05-11T08:12:01.186Z,1006
2019-05-11T08:17:09.027Z,1006
2019-05-11T08:22:16.198Z,1006
2019-05-11T08:27:28.787Z,1006
2019-05-11T08:32:31.209Z,1006
2019-05-11T08:37:38.184Z,1006
2019-05-11T08:42:41.159Z,1006
2019-05-11T08:52:41.324Z,1006
2019-05-11T08:57:48.443Z,1006
2019-05-11T09:02:51.669Z,1006
2019-05-11T09:08:01.368Z,1006
2019-05-11T09:13:11.411Z,1006
2019-05-11T09:18:18.961Z,1006
2019-05-11T09:24:39.069Z,1006
2019-05-11T09:33:21.586Z,1006
2019-05-11T09:38:28.214Z,1006
2019-05-11T09:43:31.589Z,1006
2019-05-11T09:53:31.797Z,1006
2019-05-11T09:58:39.161Z,1006
2019-05-11T10:03:41.755Z,1006
2019-05-11T10:13:41.920Z,1006
2019-05-11T10:18:49.683Z,1006
2019-05-11T10:23:51.980Z,1006
2019-05-11T10:29:01.973Z,1006
2019-05-11T10:34:11.866Z,1006
2019-05-11T10:39:19.103Z,1006
2019-05-11T10:44:21.922Z,1006
2019-05-11T10:49:29.283Z,1006
2019-05-11T10:54:31.974Z,1006
2019-05-11T10:59:41.995Z,1006
2019-05-11T11:04:51.896Z,1006
2019-05-11T11:09:58.448Z,1006
2019-05-11T11:15:01.929Z,1006
2019-05-11T11:20:09.149Z,1006
2019-05-11T11:30:09.651Z,1006
2019-05-11T11:35:12.109Z,1006
2019-05-11T11:40:18.239Z,1006
2019-05-11T11:45:29.396Z,1006
2019-05-11T11:50:38.288Z,1006
2019-05-11T11:55:42.020Z,1006
2019-05-11T12:00:48.627Z,1006
2019-05-11T12:10:48.935Z,1006
2019-05-11T12:15:52.295Z,1006
2019-05-11T12:20:59.033Z,1006
2019-05-11T12:26:08.990Z,1006
2019-05-11T12:31:19.012Z,1006
2019-05-11T12:36:22.302Z,1006
2019-05-11T12:41:28.542Z,1006
2019-05-11T12:46:32.219Z,1006
2019-05-11T12:51:38.801Z,1006
2019-05-11T12:56:49.672Z,1006
2019-05-11T13:01:59.546Z,1006
2019-05-11T13:07:02.247Z,1006
2019-05-11T13:17:02.455Z,1006
2019-05-11T13:22:08.305Z,1006
2019-05-11T13:27:14.480Z,1006
2019-05-11T13:32:22.540Z,1006
2019-05-11T13:37:32.465Z,1006
2019-05-11T13:42:39.047Z,1006
2019-05-11T13:48:52.767Z,1007
2019-05-11T13:52:48.313Z,1007
2019-05-11T13:57:52.502Z,1007
2019-05-11T14:02:59.034Z,1007
2019-05-11T14:08:02.416Z,1007
2019-05-11T14:13:09.238Z,1007
2019-05-11T14:18:12.622Z,1007
2019-05-11T14:23:18.699Z,1007
2019-05-11T14:28:22.500Z,1007
2019-05-11T14:33:28.763Z,1007
2019-05-11T14:38:32.366Z,1007
2019-05-11T14:43:42.567Z,1007
2019-05-11T14:48:52.415Z,1007
2019-05-11T14:53:59.891Z,1007
2019-05-11T14:59:02.398Z,1007
2019-05-11T15:04:09.574Z,1007
2019-05-11T15:09:12.356Z,1007
2019-05-11T15:14:22.598Z,1007
2019-05-11T15:19:32.449Z,1007
2019-05-11T15:24:38.930Z,1008
2019-05-11T15:29:42.495Z,1008
2019-05-11T15:34:49.185Z,1008
2019-05-11T15:39:52.373Z,1008
2019-05-11T15:45:02.397Z,1008
2019-05-11T15:50:12.440Z,1008
2019-05-11T15:55:19.755Z,1008
2019-05-11T16:00:22.341Z,1008
2019-05-11T16:05:28.956Z,1008
2019-05-11T16:10:32.478Z,1008
2019-05-11T16:15:42.340Z,1008
2019-05-11T16:20:52.383Z,1008
2019-05-11T16:25:58.604Z,1008
2019-05-11T16:31:02.696Z,1008
2019-05-11T16:36:09.591Z,1008
2019-05-11T16:46:09.168Z,1008
2019-05-11T16:51:12.562Z,1008
2019-05-11T16:56:19.986Z,1008
2019-05-11T17:01:27.558Z,1008
2019-05-11T17:06:39.105Z,1008
2019-05-11T17:11:42.606Z,1008
2019-05-11T17:16:48.720Z,1008
2019-05-11T17:26:48.415Z,1008
2019-05-11T17:31:52.699Z,1009
2019-05-11T17:37:00.477Z,1009
2019-05-11T17:42:09.479Z,1009
2019-05-11T17:47:18.463Z,1009
2019-05-11T17:52:22.688Z,1009
2019-05-11T18:02:22.863Z,1009
2019-05-11T18:07:31.298Z,1009
2019-05-11T18:12:32.892Z,1009
2019-05-11T18:17:42.832Z,1010
2019-05-11T18:22:52.849Z,1010
2019-05-11T18:27:58.627Z,1010
2019-05-11T18:33:03.023Z,1010
2019-05-11T18:43:03.051Z,1010
2019-05-11T18:48:08.646Z,1010
2019-05-11T18:53:13.178Z,1010
2019-05-11T18:58:23.077Z,1010
2019-05-11T19:03:33.040Z,1010
2019-05-11T19:08:38.919Z,1010
2019-05-11T19:13:43.064Z,1010
2019-05-11T19:18:48.472Z,1011
2019-05-11T19:23:53.099Z,1011
2019-05-11T19:29:03.015Z,1011
2019-05-11T19:39:09.453Z,1011
2019-05-11T19:44:13.341Z,1011
2019-05-11T19:49:19.458Z,1011
2019-05-11T19:59:18.426Z,1011
2019-05-11T20:04:23.524Z,1011
2019-05-11T20:09:28.792Z,1011
2019-05-11T20:14:38.541Z,1011
2019-05-11T20:19:49.503Z,1011
2019-05-11T20:24:53.373Z,1011
2019-05-11T20:29:58.510Z,1012
2019-05-11T20:35:03.452Z,1012
2019-05-11T20:40:09.676Z,1012
2019-05-11T20:50:08.469Z,1012
2019-05-11T20:55:13.573Z,1012
2019-05-11T21:00:19.353Z,1012
2019-05-11T21:05:28.482Z,1012
2019-05-11T21:10:39.194Z,1012
2019-05-11T21:15:43.554Z,1012
2019-05-11T21:20:48.887Z,1012
2019-05-11T21:25:53.510Z,1012
2019-05-11T21:30:59.017Z,1013
2019-05-11T21:36:03.542Z,1013
2019-05-11T21:41:09.268Z,1013
2019-05-11T21:46:13.814Z,1013
2019-05-11T21:51:18.637Z,1013
2019-05-11T21:56:23.565Z,1013
2019-05-11T22:01:28.760Z,1013
2019-05-11T22:11:28.926Z,1013
2019-05-11T22:21:28.777Z,1013
2019-05-11T22:26:33.881Z,1013
2019-05-11T22:31:42.504Z,1013
2019-05-11T22:36:48.846Z,1013
2019-05-11T22:41:59.405Z,1014
2019-05-11T22:47:03.875Z,1014
2019-05-11T22:52:09.197Z,1014
2019-05-11T22:57:13.766Z,1014
2019-05-11T23:02:19.949Z,1014
2019-05-11T23:07:29.247Z,1014
2019-05-11T23:12:39.292Z,1014
2019-05-11T23:17:43.776Z,1014
2019-05-11T23:23:55.061Z,1014
2019-05-11T23:27:53.847Z,1014
2019-05-11T23:32:59.198Z,1014
2019-05-11T23:38:03.846Z,1014
2019-05-11T23:48:03.982Z,1014
2019-05-11T23:53:10.818Z,1014
2019-05-11T23:58:13.945Z,1014
